createdAt,value
2023-02-18T00:01:18.609Z,6.88
2023-02-18T00:03:45.279Z,7.17
2023-02-18T00:06:16.917Z,6.75
2023-02-18T00:08:43.886Z,6.87
2023-02-18T00:11:10.526Z,7.41
2023-02-18T00:13:37.205Z,6.90
2023-02-18T00:16:08.994Z,7.30
2023-02-18T00:18:35.911Z,6.78
2023-02-18T00:21:06.022Z,6.83
2023-02-18T00:23:32.657Z,6.66
2023-02-18T00:26:03.488Z,6.62
2023-02-18T00:28:30.139Z,6.81
2023-02-18T00:30:56.803Z,6.41
2023-02-18T00:33:23.466Z,6.89
2023-02-18T00:35:50.094Z,6.52
2023-02-18T00:38:16.798Z,5.89
2023-02-18T00:40:43.453Z,6.02
2023-02-18T00:43:10.130Z,6.08
2023-02-18T00:45:36.819Z,6.30
2023-02-18T00:48:03.496Z,6.14
2023-02-18T00:50:30.142Z,6.07
2023-02-18T00:52:56.764Z,6.21
2023-02-18T00:55:23.424Z,5.72
2023-02-18T00:57:50.072Z,5.61
2023-02-18T01:00:16.873Z,5.60
2023-02-18T01:02:43.499Z,6.23
2023-02-18T01:05:10.147Z,6.04
2023-02-18T01:07:36.904Z,6.19
2023-02-18T01:10:04.350Z,5.88
2023-02-18T01:12:30.982Z,5.89
2023-02-18T01:14:57.628Z,6.08
2023-02-18T01:17:24.257Z,5.88
2023-02-18T01:19:50.884Z,5.96
2023-02-18T01:22:17.916Z,5.67
2023-02-18T01:24:46.332Z,6.07
2023-02-18T01:27:13.199Z,5.80
2023-02-18T01:29:39.818Z,6.25
2023-02-18T01:32:06.560Z,5.97
2023-02-18T01:34:33.702Z,5.97
2023-02-18T01:37:00.318Z,5.92
2023-02-18T01:39:27.017Z,5.84
2023-02-18T01:41:53.637Z,5.64
2023-02-18T01:44:25.348Z,5.43
2023-02-18T01:46:52.006Z,5.31
2023-02-18T01:49:25.823Z,5.73
2023-02-18T01:52:03.725Z,5.44
2023-02-18T01:54:33.070Z,5.25
2023-02-18T01:56:59.558Z,5.18
2023-02-18T01:59:31.385Z,5.33
2023-02-18T02:01:58.087Z,5.12
2023-02-18T02:04:24.787Z,5.26
2023-02-18T02:06:51.414Z,5.56
2023-02-18T02:09:19.121Z,5.89
2023-02-18T02:12:11.128Z,5.53
2023-02-18T02:14:45.310Z,5.42
2023-02-18T02:17:49.094Z,5.86
2023-02-18T02:20:43.000Z,5.80
2023-02-18T02:23:21.633Z,6.31
2023-02-18T02:26:01.168Z,5.67
2023-02-18T02:28:45.513Z,5.72
2023-02-18T02:31:24.082Z,6.40
2023-02-18T02:33:56.303Z,5.81
2023-02-18T02:36:49.696Z,5.43
2023-02-18T02:39:31.429Z,4.81
2023-02-18T02:42:04.205Z,5.38
2023-02-18T02:44:36.182Z,5.63
2023-02-18T02:47:09.518Z,5.37
2023-02-18T02:50:05.301Z,5.40
2023-02-18T02:52:38.769Z,4.96
2023-02-18T02:55:10.164Z,5.39
2023-02-18T02:57:36.678Z,5.08
2023-02-18T03:00:06.247Z,4.97
2023-02-18T03:02:47.884Z,4.93
2023-02-18T03:05:41.732Z,5.34
2023-02-18T03:08:29.540Z,5.59
2023-02-18T03:11:12.995Z,5.66
2023-02-18T03:13:51.679Z,5.92
2023-02-18T03:16:28.178Z,5.85
2023-02-18T03:19:29.457Z,5.72
2023-02-18T03:21:58.606Z,5.76
2023-02-18T03:24:27.690Z,6.12
2023-02-18T03:26:56.640Z,5.55
2023-02-18T03:29:23.285Z,5.90
2023-02-18T03:31:53.511Z,5.67
2023-02-18T03:34:31.374Z,5.36
2023-02-18T03:36:58.476Z,5.17
2023-02-18T03:39:26.313Z,5.15
2023-02-18T03:42:02.387Z,5.47
2023-02-18T03:44:30.458Z,5.53
2023-02-18T03:46:57.109Z,5.25
2023-02-18T03:49:23.769Z,5.67
2023-02-18T03:51:50.548Z,5.16
2023-02-18T03:54:17.196Z,5.12
2023-02-18T03:56:43.813Z,5.32
2023-02-18T03:59:11.099Z,5.30
2023-02-18T04:01:37.811Z,5.43
2023-02-18T04:04:04.567Z,5.19
2023-02-18T04:06:31.270Z,5.28
2023-02-18T04:08:57.957Z,5.01
2023-02-18T04:11:24.592Z,5.08
2023-02-18T04:13:51.240Z,5.17
2023-02-18T04:16:17.930Z,5.33
2023-02-18T04:18:44.574Z,5.51
2023-02-18T04:21:11.266Z,5.11
2023-02-18T04:23:37.950Z,5.37
2023-02-18T04:26:04.668Z,5.45
2023-02-18T04:28:31.313Z,5.65
2023-02-18T04:30:58.027Z,5.19
2023-02-18T04:33:24.738Z,5.23
2023-02-18T04:35:51.391Z,5.02
2023-02-18T04:38:18.042Z,4.80
2023-02-18T04:40:44.690Z,4.86
2023-02-18T04:43:11.333Z,4.99
2023-02-18T04:45:37.996Z,4.87
2023-02-18T04:48:04.916Z,4.69
2023-02-18T04:50:31.686Z,4.71
2023-02-18T04:52:58.338Z,4.84
2023-02-18T04:55:25.020Z,4.78
2023-02-18T04:57:51.678Z,5.07
2023-02-18T05:00:18.721Z,4.78
2023-02-18T05:02:45.678Z,4.83
2023-02-18T05:05:12.933Z,5.44
2023-02-18T05:07:39.597Z,5.19
2023-02-18T05:10:06.833Z,4.74
2023-02-18T05:12:33.474Z,5.18
2023-02-18T05:15:00.123Z,5.30
2023-02-18T05:17:26.859Z,5.31
2023-02-18T05:19:53.505Z,5.41
2023-02-18T05:22:20.144Z,5.58
2023-02-18T05:24:46.785Z,5.25
2023-02-18T05:27:13.450Z,5.22
2023-02-18T05:29:40.102Z,5.39
2023-02-18T05:32:06.820Z,5.09
2023-02-18T05:34:33.611Z,5.24
2023-02-18T05:37:00.258Z,5.49
2023-02-18T05:39:26.909Z,5.44
2023-02-18T05:41:53.580Z,5.59
2023-02-18T05:44:20.281Z,5.68
2023-02-18T05:46:47.067Z,5.26
2023-02-18T05:49:13.775Z,5.33
2023-02-18T05:51:40.416Z,5.01
2023-02-18T05:54:07.084Z,5.29
2023-02-18T05:56:33.807Z,4.96
2023-02-18T05:59:00.503Z,5.26
2023-02-18T06:01:27.165Z,4.85
2023-02-18T06:03:53.848Z,5.28
2023-02-18T06:06:20.540Z,5.41
2023-02-18T06:08:47.259Z,5.19
2023-02-18T06:11:13.929Z,5.18
2023-02-18T06:13:40.672Z,5.28
2023-02-18T06:16:07.710Z,5.49
2023-02-18T06:18:34.575Z,5.09
2023-02-18T06:21:01.259Z,5.43
2023-02-18T06:23:27.918Z,5.34
2023-02-18T06:25:55.651Z,4.84
2023-02-18T06:28:23.265Z,5.11
2023-02-18T06:30:50.858Z,5.04
2023-02-18T06:33:18.461Z,5.03
2023-02-18T06:36:05.135Z,5.39
2023-02-18T06:38:32.732Z,6.31
2023-02-18T06:41:00.333Z,5.45
2023-02-18T06:43:27.000Z,5.30
2023-02-18T06:45:54.558Z,5.02
2023-02-18T06:48:22.124Z,5.11
2023-02-18T06:50:49.329Z,4.78
2023-02-18T06:53:15.981Z,5.22
2023-02-18T06:55:42.710Z,5.53
2023-02-18T06:58:10.137Z,5.55
2023-02-18T07:00:36.804Z,5.38
2023-02-18T07:03:03.510Z,5.09
2023-02-18T07:05:30.189Z,4.55
2023-02-18T07:07:56.827Z,4.61
2023-02-18T07:10:23.674Z,4.40
2023-02-18T07:12:50.312Z,4.71
2023-02-18T07:15:19.897Z,4.55
2023-02-18T07:17:46.521Z,5.15
2023-02-18T07:20:13.235Z,5.38
2023-02-18T07:22:39.866Z,5.01
2023-02-18T07:25:06.733Z,5.27
2023-02-18T07:27:33.382Z,5.35
2023-02-18T07:30:00.289Z,6.01
2023-02-18T07:32:26.990Z,5.54
2023-02-18T07:34:53.645Z,5.17
2023-02-18T07:37:20.451Z,5.32
2023-02-18T07:39:47.105Z,5.52
2023-02-18T07:42:13.741Z,5.62
2023-02-18T07:44:40.462Z,6.02
2023-02-18T07:47:07.577Z,5.38
2023-02-18T07:49:34.422Z,5.53
2023-02-18T07:52:01.152Z,5.21
2023-02-18T07:54:27.810Z,5.34
2023-02-18T07:56:54.451Z,5.87
2023-02-18T07:59:21.075Z,5.10
2023-02-18T08:01:47.770Z,5.67
2023-02-18T08:04:14.528Z,5.39
2023-02-18T08:06:42.901Z,4.89
2023-02-18T08:09:09.589Z,5.60
2023-02-18T08:11:36.503Z,5.70
2023-02-18T08:14:03.163Z,6.27
2023-02-18T08:16:29.850Z,5.81
2023-02-18T08:18:56.622Z,5.63
2023-02-18T08:21:23.821Z,5.62
2023-02-18T08:23:50.521Z,5.68
2023-02-18T08:26:17.229Z,5.71
2023-02-18T08:28:44.685Z,5.68
2023-02-18T08:31:18.957Z,5.39
2023-02-18T08:33:45.664Z,5.50
2023-02-18T08:36:12.307Z,5.21
2023-02-18T08:38:39.016Z,5.47
2023-02-18T08:41:07.778Z,6.12
2023-02-18T08:43:34.488Z,5.65
2023-02-18T08:46:01.409Z,7.12
2023-02-18T08:48:28.199Z,7.34
2023-02-18T08:50:54.880Z,7.01
2023-02-18T08:53:21.504Z,6.34
2023-02-18T08:55:48.325Z,6.36
2023-02-18T08:58:14.961Z,6.04
2023-02-18T09:00:42.245Z,5.72
2023-02-18T09:03:13.634Z,5.63
2023-02-18T09:05:40.443Z,5.59
2023-02-18T09:08:07.180Z,5.51
2023-02-18T09:10:33.828Z,5.73
2023-02-18T09:13:00.459Z,6.64
2023-02-18T09:15:27.110Z,6.31
2023-02-18T09:17:53.894Z,6.21
2023-02-18T09:20:20.630Z,6.59
2023-02-18T09:22:47.266Z,6.30
2023-02-18T09:25:14.013Z,5.94
2023-02-18T09:27:40.645Z,5.94
2023-02-18T09:30:08.126Z,5.50
2023-02-18T09:32:35.624Z,4.33
2023-02-18T09:35:03.940Z,4.34
2023-02-18T09:37:30.583Z,4.02
2023-02-18T09:39:57.241Z,4.20
2023-02-18T09:42:28.643Z,4.22
2023-02-18T09:44:56.577Z,3.74
2023-02-18T09:47:34.560Z,3.81
2023-02-18T09:50:08.376Z,3.79
2023-02-18T09:52:36.338Z,3.73
2023-02-18T09:55:24.191Z,4.31
2023-02-18T09:57:55.022Z,4.09
2023-02-18T10:00:36.422Z,4.16
2023-02-18T10:03:08.381Z,4.16
2023-02-18T10:05:35.008Z,4.21
2023-02-18T10:08:07.105Z,4.24
2023-02-18T10:10:40.029Z,4.14
2023-02-18T10:13:14.056Z,4.22
2023-02-18T10:15:41.073Z,4.47
2023-02-18T10:18:18.096Z,4.29
2023-02-18T10:20:44.717Z,4.61
2023-02-18T10:23:11.367Z,4.69
2023-02-18T10:25:39.514Z,4.51
2023-02-18T10:28:06.152Z,4.70
2023-02-18T10:30:35.786Z,4.73
2023-02-18T10:33:30.014Z,4.35
2023-02-18T10:36:24.079Z,4.48
2023-02-18T10:38:59.396Z,4.08
2023-02-18T10:41:50.852Z,3.85
2023-02-18T10:44:41.905Z,4.30
2023-02-18T10:47:27.173Z,4.03
2023-02-18T10:50:08.764Z,4.06
2023-02-18T10:52:43.776Z,4.13
2023-02-18T10:55:12.320Z,4.54
2023-02-18T10:57:50.055Z,4.17
2023-02-18T11:00:23.450Z,4.62
2023-02-18T11:03:22.948Z,4.64
2023-02-18T11:05:54.231Z,4.72
2023-02-18T11:08:23.206Z,4.54
2023-02-18T11:10:50.002Z,4.48
2023-02-18T11:13:18.412Z,4.99
2023-02-18T11:15:58.330Z,4.90
2023-02-18T11:18:32.642Z,5.04
2023-02-18T11:21:04.388Z,5.47
2023-02-18T11:23:31.194Z,5.31
2023-02-18T11:26:00.772Z,4.81
2023-02-18T11:28:43.577Z,5.09
2023-02-18T11:31:10.759Z,5.55
2023-02-18T11:33:42.730Z,5.30
2023-02-18T11:36:22.376Z,5.44
2023-02-18T11:38:49.805Z,5.25
2023-02-18T11:41:32.389Z,5.72
2023-02-18T11:43:59.360Z,5.93
2023-02-18T11:46:26.424Z,6.17
2023-02-18T11:48:53.212Z,7.80
2023-02-18T11:51:23.661Z,8.05
2023-02-18T11:54:01.672Z,9.59
2023-02-18T11:56:33.121Z,9.50
2023-02-18T11:59:00.273Z,10.44
2023-02-18T12:01:51.589Z,9.94
2023-02-18T12:04:25.456Z,11.16
2023-02-18T12:07:06.241Z,11.33
2023-02-18T12:09:43.186Z,10.79
2023-02-18T12:12:12.679Z,11.03
2023-02-18T12:14:39.327Z,10.60
2023-02-18T12:17:33.696Z,10.74
2023-02-18T12:20:13.520Z,10.62
2023-02-18T12:22:49.461Z,10.92
2023-02-18T12:25:30.022Z,11.20
2023-02-18T12:28:23.819Z,11.08
2023-02-18T12:30:56.338Z,11.18
2023-02-18T12:33:42.611Z,10.74
2023-02-18T12:36:15.007Z,10.04
2023-02-18T12:38:54.717Z,9.99
2023-02-18T12:41:45.408Z,9.77
2023-02-18T12:44:38.485Z,10.03
2023-02-18T12:47:28.432Z,8.78
2023-02-18T12:50:17.510Z,7.79
2023-02-18T12:52:50.125Z,7.22
2023-02-18T12:55:35.357Z,7.46
2023-02-18T12:58:18.307Z,7.40
2023-02-18T13:01:07.802Z,9.37
2023-02-18T13:03:47.306Z,9.17
2023-02-18T13:06:16.817Z,8.90
2023-02-18T13:09:02.036Z,7.88
2023-02-18T13:11:40.314Z,6.91
2023-02-18T13:14:09.590Z,6.34
2023-02-18T13:16:36.252Z,6.35
2023-02-18T13:19:24.675Z,5.77
2023-02-18T13:22:12.489Z,5.86
2023-02-18T13:24:40.189Z,5.94
2023-02-18T13:27:28.123Z,5.78
2023-02-18T13:30:19.396Z,5.94
2023-02-18T13:32:58.529Z,6.81
2023-02-18T13:35:33.617Z,7.48
2023-02-18T13:38:22.798Z,7.37
2023-02-18T13:40:49.410Z,7.51
2023-02-18T13:43:34.854Z,7.44
2023-02-18T13:46:07.293Z,7.08
2023-02-18T13:48:50.791Z,7.51
2023-02-18T13:51:38.959Z,8.20
2023-02-18T13:54:14.618Z,7.71
2023-02-18T13:56:45.059Z,7.24
2023-02-18T13:59:19.427Z,7.30
2023-02-18T14:01:49.801Z,7.27
2023-02-18T14:04:41.473Z,7.17
2023-02-18T14:07:33.061Z,6.96
2023-02-18T14:10:00.657Z,6.76
2023-02-18T14:12:35.251Z,6.59
2023-02-18T14:15:01.867Z,6.27
2023-02-18T14:17:33.980Z,6.65
2023-02-18T14:20:00.465Z,6.72
2023-02-18T14:22:28.957Z,6.88
2023-02-18T14:24:57.578Z,6.85
2023-02-18T14:27:24.214Z,6.72
2023-02-18T14:29:51.812Z,6.44
2023-02-18T14:32:19.205Z,6.05
2023-02-18T14:35:27.274Z,6.30
2023-02-18T14:38:00.304Z,6.69
2023-02-18T14:40:36.964Z,7.09
2023-02-18T14:43:41.200Z,7.85
2023-02-18T14:46:28.443Z,8.88
2023-02-18T14:49:17.045Z,6.92
2023-02-18T14:51:44.453Z,7.35
2023-02-18T14:54:16.156Z,7.57
2023-02-18T14:56:56.210Z,7.73
2023-02-18T14:59:23.879Z,7.84
2023-02-18T15:01:53.248Z,8.79
2023-02-18T15:04:19.917Z,7.99
2023-02-18T15:06:46.663Z,7.53
2023-02-18T15:09:15.658Z,7.76
2023-02-18T15:11:48.024Z,6.86
2023-02-18T15:14:23.508Z,7.20
2023-02-18T15:16:50.152Z,7.39
2023-02-18T15:19:19.115Z,6.73
2023-02-18T15:21:53.188Z,7.14
2023-02-18T15:24:25.664Z,7.12
2023-02-18T15:26:53.110Z,7.11
2023-02-18T15:29:21.813Z,6.93
2023-02-18T15:31:48.811Z,7.21
2023-02-18T15:34:31.825Z,7.59
2023-02-18T15:37:02.902Z,7.38
2023-02-18T15:39:29.525Z,8.01
2023-02-18T15:41:57.613Z,8.10
2023-02-18T15:44:25.907Z,7.99
2023-02-18T15:46:52.521Z,8.55
2023-02-18T15:49:21.332Z,7.63
2023-02-18T15:51:47.954Z,8.19
2023-02-18T15:54:18.913Z,8.49
2023-02-18T15:56:46.501Z,8.58
2023-02-18T15:59:26.281Z,8.86
2023-02-18T16:01:54.550Z,8.44
2023-02-18T16:04:22.181Z,9.16
2023-02-18T16:06:54.856Z,8.73
2023-02-18T16:09:30.096Z,7.52
2023-02-18T16:11:58.086Z,7.33
2023-02-18T16:14:32.692Z,7.08
2023-02-18T16:17:11.571Z,7.26
2023-02-18T16:20:02.931Z,7.12
2023-02-18T16:22:33.802Z,6.69
2023-02-18T16:25:21.366Z,6.66
2023-02-18T16:27:52.174Z,6.39
2023-02-18T16:30:21.957Z,6.25
2023-02-18T16:32:48.801Z,6.36
2023-02-18T16:35:15.710Z,6.22
2023-02-18T16:37:42.468Z,6.11
2023-02-18T16:40:28.527Z,6.17
2023-02-18T16:42:55.848Z,6.25
2023-02-18T16:45:32.318Z,6.61
2023-02-18T16:47:59.019Z,6.39
2023-02-18T16:50:25.636Z,6.29
2023-02-18T16:52:52.274Z,6.23
2023-02-18T16:55:21.053Z,5.87
2023-02-18T16:57:48.449Z,6.05
2023-02-18T17:00:16.423Z,5.91
2023-02-18T17:02:47.884Z,5.67
2023-02-18T17:05:27.158Z,5.31
2023-02-18T17:07:54.748Z,5.60
2023-02-18T17:10:21.405Z,5.54
2023-02-18T17:12:48.042Z,5.28
2023-02-18T17:15:28.215Z,5.52
2023-02-18T17:17:55.287Z,5.59
2023-02-18T17:20:22.016Z,5.65
2023-02-18T17:22:48.731Z,6.14
2023-02-18T17:25:21.521Z,5.83
2023-02-18T17:27:48.215Z,6.18
2023-02-18T17:30:14.924Z,6.62
2023-02-18T17:32:42.368Z,6.37
2023-02-18T17:35:14.996Z,7.25
2023-02-18T17:37:41.617Z,6.88
2023-02-18T17:40:13.601Z,7.51
2023-02-18T17:42:40.264Z,7.29
2023-02-18T17:45:34.367Z,7.81
2023-02-18T17:48:01.276Z,7.74
2023-02-18T17:50:28.323Z,7.83
2023-02-18T17:52:54.954Z,9.76
2023-02-18T17:55:23.396Z,10.99
2023-02-18T17:57:50.346Z,13.68
2023-02-18T18:00:20.011Z,17.34
2023-02-18T18:02:46.666Z,16.16
2023-02-18T18:05:18.605Z,10.76
2023-02-18T18:07:45.238Z,12.44
2023-02-18T18:10:11.864Z,12.46
2023-02-18T18:12:38.515Z,10.64
2023-02-18T18:15:36.169Z,11.49
2023-02-18T18:18:02.813Z,11.67
2023-02-18T18:20:30.514Z,11.69
2023-02-18T18:22:57.718Z,14.98
2023-02-18T18:25:28.073Z,17.70
2023-02-18T18:27:54.780Z,14.15
2023-02-18T18:30:29.104Z,12.82
2023-02-18T18:32:55.958Z,12.09
2023-02-18T18:35:27.889Z,11.04
2023-02-18T18:37:54.598Z,10.35
2023-02-18T18:40:21.900Z,10.26
2023-02-18T18:42:48.523Z,9.91
2023-02-18T18:45:17.093Z,9.95
2023-02-18T18:47:44.098Z,11.55
2023-02-18T18:50:10.784Z,12.07
2023-02-18T18:52:37.684Z,11.95
2023-02-18T18:55:04.362Z,12.13
2023-02-18T18:57:31.016Z,12.56
2023-02-18T18:59:57.741Z,13.22
2023-02-18T19:02:24.398Z,13.31
2023-02-18T19:04:51.040Z,12.09
2023-02-18T19:07:17.692Z,12.42
2023-02-18T19:09:44.323Z,14.00
2023-02-18T19:12:11.090Z,16.60
2023-02-18T19:14:37.714Z,17.59
2023-02-18T19:17:05.371Z,15.02
2023-02-18T19:19:32.006Z,12.77
2023-02-18T19:21:58.664Z,13.53
2023-02-18T19:24:25.289Z,16.44
2023-02-18T19:26:51.913Z,20.36
2023-02-18T19:29:18.551Z,21.58
2023-02-18T19:31:45.269Z,29.09
2023-02-18T19:34:11.995Z,29.93
2023-02-18T19:36:38.646Z,19.01
2023-02-18T19:39:05.328Z,15.35
2023-02-18T19:41:31.978Z,15.29
2023-02-18T19:43:58.587Z,16.80
2023-02-18T19:46:25.241Z,22.49
2023-02-18T19:48:51.880Z,18.44
2023-02-18T19:51:18.865Z,16.91
2023-02-18T19:53:45.584Z,18.43
2023-02-18T19:56:12.253Z,17.27
2023-02-18T19:58:38.960Z,16.30
2023-02-18T20:01:14.123Z,16.99
2023-02-18T20:03:41.121Z,15.45
2023-02-18T20:06:14.840Z,14.93
2023-02-18T20:08:41.514Z,18.05
2023-02-18T20:11:08.597Z,18.94
2023-02-18T20:13:35.424Z,16.91
2023-02-18T20:16:02.193Z,13.81
2023-02-18T20:18:28.855Z,11.78
2023-02-18T20:20:55.514Z,13.00
2023-02-18T20:23:22.170Z,16.11
2023-02-18T20:25:48.799Z,15.06
2023-02-18T20:28:15.468Z,12.34
2023-02-18T20:30:42.585Z,12.45
2023-02-18T20:33:09.269Z,12.21
2023-02-18T20:35:35.951Z,11.01
2023-02-18T20:38:02.678Z,10.68
2023-02-18T20:40:29.343Z,9.63
2023-02-18T20:42:56.014Z,10.49
2023-02-18T20:45:22.691Z,10.88
2023-02-18T20:47:49.345Z,10.77
2023-02-18T20:50:16.112Z,12.95
2023-02-18T20:52:42.814Z,13.51
2023-02-18T20:55:09.482Z,13.38
2023-02-18T20:57:36.133Z,13.55
2023-02-18T21:00:03.252Z,13.12
2023-02-18T21:02:29.906Z,13.83
2023-02-18T21:04:56.671Z,14.58
2023-02-18T21:07:23.379Z,13.90
2023-02-18T21:09:50.102Z,12.83
2023-02-18T21:12:16.772Z,12.43
2023-02-18T21:14:43.432Z,11.74
2023-02-18T21:17:10.195Z,11.78
2023-02-18T21:19:36.858Z,10.52
2023-02-18T21:22:03.530Z,10.86
2023-02-18T21:24:30.202Z,11.71
2023-02-18T21:26:56.867Z,13.56
2023-02-18T21:29:23.650Z,15.60
2023-02-18T21:31:50.350Z,14.81
2023-02-18T21:34:17.079Z,13.24
2023-02-18T21:36:43.719Z,13.53
2023-02-18T21:39:10.410Z,11.40
2023-02-18T21:41:39.807Z,9.47
2023-02-18T21:44:07.264Z,9.04
2023-02-18T21:46:35.639Z,11.08
2023-02-18T21:49:02.552Z,10.12
2023-02-18T21:51:29.602Z,10.91
2023-02-18T21:53:56.223Z,9.96
2023-02-18T21:56:22.891Z,11.05
2023-02-18T21:58:49.567Z,14.82
2023-02-18T22:01:16.281Z,15.73
2023-02-18T22:03:43.074Z,16.29
2023-02-18T22:06:09.736Z,13.74
2023-02-18T22:08:36.371Z,8.56
2023-02-18T22:11:04.851Z,9.40
2023-02-18T22:13:31.513Z,10.97
2023-02-18T22:15:58.289Z,9.95
2023-02-18T22:18:24.949Z,8.99
2023-02-18T22:20:51.604Z,8.88
2023-02-18T22:23:18.296Z,8.56
2023-02-18T22:25:45.692Z,8.23
2023-02-18T22:28:13.387Z,7.99
2023-02-18T22:30:40.872Z,8.78
2023-02-18T22:33:08.467Z,8.06
2023-02-18T22:35:36.068Z,7.96
2023-02-18T22:38:03.660Z,7.32
2023-02-18T22:40:31.253Z,8.18
2023-02-18T22:42:57.887Z,7.48
2023-02-18T22:45:24.522Z,7.74
2023-02-18T22:47:51.194Z,7.64
2023-02-18T22:50:17.894Z,7.66
2023-02-18T22:52:44.531Z,7.43
2023-02-18T22:55:11.239Z,7.79
2023-02-18T22:57:37.959Z,7.43
2023-02-18T23:00:08.282Z,7.39
2023-02-18T23:02:35.012Z,7.42
2023-02-18T23:05:01.750Z,8.08
2023-02-18T23:07:28.426Z,8.31
2023-02-18T23:09:55.050Z,8.49
2023-02-18T23:12:21.699Z,7.48
2023-02-18T23:14:48.348Z,7.23
2023-02-18T23:17:15.152Z,7.47
2023-02-18T23:19:51.701Z,7.04
2023-02-18T23:22:20.534Z,6.84
2023-02-18T23:24:47.190Z,7.06
2023-02-18T23:27:14.657Z,7.14
2023-02-18T23:29:41.381Z,7.02
2023-02-18T23:32:08.350Z,7.61
2023-02-18T23:34:35.073Z,7.45
2023-02-18T23:37:01.719Z,7.29
2023-02-18T23:39:28.366Z,8.13
2023-02-18T23:41:55.123Z,7.12
2023-02-18T23:44:22.828Z,6.97
2023-02-18T23:46:49.474Z,6.97
2023-02-18T23:49:23.768Z,7.14
2023-02-18T23:51:51.074Z,7.26
2023-02-18T23:54:17.712Z,7.11
2023-02-18T23:56:44.463Z,6.64
2023-02-18T23:59:11.297Z,6.61
